Aloha, Oregon
Current Conditions -  °F | °C
As of 4:53 PM on Tuesday 27 Jan 2015 (Local Time) from KHIO Reporting Station
Haze Haze  
Wind Chill:   Ceiling: 600
Heat Index:   Visibility: 2mi
Dew Point:   Wind: 0mph
Humidity: 97%   Direction: NA
Pressure: 30.18"   Gusts: NA
Location:  45.49°N, 122.86°W
Report Text: KHIO 280053Z 00000KT 2SM BR OVC006 08/08 A3018 RMK AO2 SLP220 T00830078
Loading
Personal Weather Stations






























Interactive Weather Map New forecast layout! Learn more

10-Day Weather Forecast

Advertisements
Track Severe Weather on mobile